createdAt,value
2022-12-19T00:01:58.672Z,4.30
2022-12-19T00:04:27.278Z,4.90
2022-12-19T00:06:57.939Z,4.60
2022-12-19T00:09:27.398Z,4.70
2022-12-19T00:11:55.668Z,4.70
2022-12-19T00:14:23.852Z,4.70
2022-12-19T00:16:52.202Z,4.70
2022-12-19T00:19:20.388Z,4.40
2022-12-19T00:21:48.613Z,4.60
2022-12-19T00:24:21.240Z,4.40
2022-12-19T00:26:50.202Z,4.10
2022-12-19T00:29:18.492Z,4.10
2022-12-19T00:31:46.860Z,3.90
2022-12-19T00:34:16.058Z,4.20
2022-12-19T00:36:44.436Z,3.90
2022-12-19T00:39:12.447Z,3.60
2022-12-19T00:41:41.621Z,3.80
2022-12-19T00:44:14.613Z,2.50
2022-12-19T00:46:47.399Z,3.50
2022-12-19T00:49:21.590Z,3.50
2022-12-19T00:51:49.963Z,3.90
2022-12-19T00:54:18.137Z,3.30
2022-12-19T00:56:46.918Z,4.00
2022-12-19T00:59:14.947Z,3.60
2022-12-19T01:01:46.514Z,3.20
2022-12-19T01:04:33.456Z,4.00
2022-12-19T01:07:04.315Z,3.80
2022-12-19T01:09:34.616Z,4.00
2022-12-19T01:12:06.645Z,2.90
2022-12-19T01:14:35.607Z,3.30
2022-12-19T01:17:03.861Z,3.30
2022-12-19T01:19:31.966Z,3.30
2022-12-19T01:22:01.676Z,3.30
2022-12-19T01:24:30.445Z,3.30
2022-12-19T01:26:58.529Z,2.70
2022-12-19T01:29:28.861Z,2.80
2022-12-19T01:31:59.087Z,2.90
2022-12-19T01:34:28.290Z,2.90
2022-12-19T01:36:56.911Z,2.90
2022-12-19T01:39:25.163Z,2.70
2022-12-19T01:41:56.054Z,1.40
2022-12-19T01:44:25.127Z,1.50
2022-12-19T01:46:56.756Z,3.10
2022-12-19T01:49:38.046Z,3.20
2022-12-19T01:52:10.321Z,2.90
2022-12-19T01:54:42.841Z,1.70
2022-12-19T01:57:14.339Z,2.70
2022-12-19T01:59:54.088Z,2.80
2022-12-19T02:02:31.499Z,2.40
2022-12-19T02:05:00.696Z,2.40
2022-12-19T02:07:29.540Z,2.20
2022-12-19T02:09:58.783Z,2.70
2022-12-19T02:12:30.281Z,2.30
2022-12-19T02:15:02.945Z,1.50
2022-12-19T02:17:31.524Z,2.20
2022-12-19T02:20:05.381Z,1.90
2022-12-19T02:22:52.446Z,2.10
2022-12-19T02:25:39.274Z,2.10
2022-12-19T02:28:25.971Z,2.20
2022-12-19T02:31:17.705Z,2.00
2022-12-19T02:33:56.241Z,2.10
2022-12-19T02:36:48.383Z,2.20
2022-12-19T02:39:37.179Z,2.00
2022-12-19T02:42:08.316Z,1.90
2022-12-19T02:44:51.700Z,2.10
2022-12-19T02:47:21.890Z,1.80
2022-12-19T02:49:50.185Z,2.10
2022-12-19T02:52:21.440Z,1.70
2022-12-19T02:54:52.285Z,1.90
2022-12-19T02:57:38.002Z,2.00
2022-12-19T03:00:14.867Z,1.80
2022-12-19T03:03:05.881Z,1.20
2022-12-19T03:05:57.972Z,2.20
2022-12-19T03:08:38.989Z,2.00
2022-12-19T03:11:14.225Z,2.00
2022-12-19T03:13:48.508Z,2.10
2022-12-19T03:16:16.690Z,1.00
2022-12-19T03:18:45.710Z,1.90
2022-12-19T03:21:37.242Z,1.50
2022-12-19T03:24:09.524Z,1.50
2022-12-19T03:27:02.688Z,1.80
2022-12-19T03:29:33.100Z,2.00
2022-12-19T03:32:04.371Z,1.60
2022-12-19T03:34:42.526Z,1.70
2022-12-19T03:37:17.073Z,1.80
2022-12-19T03:39:48.924Z,2.00
2022-12-19T03:42:19.241Z,1.80
2022-12-19T03:44:50.313Z,0.90
2022-12-19T03:47:23.989Z,1.40
2022-12-19T03:49:53.153Z,1.50
2022-12-19T03:52:30.337Z,1.60
2022-12-19T03:55:25.297Z,1.60
2022-12-19T03:58:13.935Z,1.40
2022-12-19T04:00:46.404Z,1.50
2022-12-19T04:03:17.867Z,1.60
2022-12-19T04:05:48.220Z,1.40
2022-12-19T04:08:17.371Z,1.30
2022-12-19T04:10:52.119Z,1.20
2022-12-19T04:13:32.378Z,1.60
2022-12-19T04:16:18.356Z,1.60
2022-12-19T04:18:52.936Z,0.90
2022-12-19T04:21:51.405Z,0.70
2022-12-19T04:24:26.371Z,1.20
2022-12-19T04:26:57.374Z,0.90
2022-12-19T04:29:28.332Z,1.20
2022-12-19T04:31:57.086Z,1.60
2022-12-19T04:34:25.685Z,1.60
2022-12-19T04:36:54.015Z,1.30
2022-12-19T04:39:22.461Z,0.90
2022-12-19T04:41:51.371Z,1.30
2022-12-19T04:44:19.599Z,1.50
2022-12-19T04:46:47.935Z,1.50
2022-12-19T04:49:16.420Z,0.80
2022-12-19T04:51:44.525Z,1.60
2022-12-19T04:54:12.699Z,0.90
2022-12-19T04:56:41.220Z,1.20
2022-12-19T04:59:13.363Z,1.60
2022-12-19T05:01:41.859Z,1.70
2022-12-19T05:04:10.334Z,1.50
2022-12-19T05:06:38.621Z,1.60
2022-12-19T05:09:07.295Z,1.60
2022-12-19T05:11:35.423Z,1.50
2022-12-19T05:14:04.047Z,1.50
2022-12-19T05:16:32.440Z,0.80
2022-12-19T05:19:00.571Z,1.10
2022-12-19T05:21:28.685Z,1.60
2022-12-19T05:23:56.980Z,1.20
2022-12-19T05:26:27.761Z,1.80
2022-12-19T05:28:55.837Z,1.30
2022-12-19T05:31:24.358Z,1.70
2022-12-19T05:33:52.605Z,0.70
2022-12-19T05:36:21.975Z,1.00
2022-12-19T05:38:50.372Z,1.70
2022-12-19T05:41:20.841Z,1.60
2022-12-19T05:43:54.486Z,1.70
2022-12-19T05:46:23.907Z,1.60
2022-12-19T05:48:53.337Z,0.90
2022-12-19T05:51:22.190Z,0.80
2022-12-19T05:53:50.221Z,1.50
2022-12-19T05:56:21.527Z,1.50
2022-12-19T05:58:50.443Z,1.80
2022-12-19T06:01:25.221Z,0.80
2022-12-19T06:03:54.991Z,1.80
2022-12-19T06:06:26.429Z,2.10
2022-12-19T06:08:56.332Z,1.20
2022-12-19T06:11:26.225Z,0.90
2022-12-19T06:13:54.950Z,1.60
2022-12-19T06:16:23.656Z,1.80
2022-12-19T06:18:52.034Z,1.80
2022-12-19T06:21:22.293Z,1.80
2022-12-19T06:23:50.995Z,1.90
2022-12-19T06:26:21.127Z,1.60
2022-12-19T06:28:51.080Z,2.00
2022-12-19T06:31:21.307Z,1.10
2022-12-19T06:33:50.087Z,1.90
2022-12-19T06:36:24.445Z,1.10
2022-12-19T06:38:55.119Z,2.10
2022-12-19T06:41:23.954Z,1.90
2022-12-19T06:43:53.869Z,1.30
2022-12-19T06:46:22.349Z,1.80
2022-12-19T06:48:51.808Z,2.40
2022-12-19T06:51:20.475Z,1.40
2022-12-19T06:53:49.611Z,2.00
2022-12-19T06:56:18.434Z,2.00
2022-12-19T06:58:47.529Z,1.90
2022-12-19T07:01:34.786Z,2.00
2022-12-19T07:04:03.646Z,1.70
2022-12-19T07:06:31.861Z,2.10
2022-12-19T07:08:59.999Z,2.30
2022-12-19T07:11:28.259Z,1.30
2022-12-19T07:13:57.137Z,1.70
2022-12-19T07:16:26.752Z,1.90
2022-12-19T07:18:55.325Z,1.90
2022-12-19T07:21:23.450Z,2.20
2022-12-19T07:23:51.661Z,2.00
2022-12-19T07:26:20.008Z,1.80
2022-12-19T07:28:48.110Z,2.40
2022-12-19T07:31:16.299Z,1.40
2022-12-19T07:33:44.499Z,1.80
2022-12-19T07:36:13.481Z,2.00
2022-12-19T07:38:42.308Z,2.00
2022-12-19T07:41:10.779Z,1.80
2022-12-19T07:43:40.229Z,1.70
2022-12-19T07:46:08.825Z,1.70
2022-12-19T07:48:37.347Z,1.90
2022-12-19T07:51:06.262Z,1.60
2022-12-19T07:53:34.454Z,1.60
2022-12-19T07:56:02.724Z,1.80
2022-12-19T07:58:30.873Z,2.20
2022-12-19T08:01:00.683Z,1.80
2022-12-19T08:03:29.354Z,2.20
2022-12-19T08:06:01.803Z,1.30
2022-12-19T08:08:30.552Z,1.20
2022-12-19T08:11:19.853Z,1.80
2022-12-19T08:13:48.794Z,1.40
2022-12-19T08:16:17.070Z,1.20
2022-12-19T08:18:45.829Z,1.20
2022-12-19T08:21:14.609Z,1.20
2022-12-19T08:23:42.872Z,1.60
2022-12-19T08:26:13.545Z,1.30
2022-12-19T08:28:41.828Z,1.20
2022-12-19T08:31:13.029Z,1.40
2022-12-19T08:33:42.402Z,1.10
2022-12-19T08:36:13.333Z,1.40
2022-12-19T08:38:42.070Z,1.30
2022-12-19T08:41:11.177Z,1.10
2022-12-19T08:43:39.843Z,1.00
2022-12-19T08:46:10.124Z,1.00
2022-12-19T08:48:38.575Z,1.10
2022-12-19T08:51:08.958Z,1.20
2022-12-19T08:53:39.462Z,1.60
2022-12-19T08:56:17.264Z,1.20
2022-12-19T08:58:46.218Z,1.30
2022-12-19T09:01:17.785Z,1.00
2022-12-19T09:04:50.252Z,1.20
2022-12-19T09:06:35.929Z,1.00
2022-12-19T09:09:05.553Z,1.00
2022-12-19T09:11:33.770Z,1.20
2022-12-19T09:14:04.464Z,1.20
2022-12-19T09:16:32.980Z,1.20
2022-12-19T09:19:01.142Z,1.00
2022-12-19T09:21:30.011Z,0.80
2022-12-19T09:24:07.025Z,1.00
2022-12-19T09:26:38.191Z,1.50
2022-12-19T09:29:19.657Z,1.50
2022-12-19T09:31:55.257Z,1.20
2022-12-19T09:34:37.089Z,1.30
2022-12-19T09:37:15.170Z,1.10
2022-12-19T09:39:47.260Z,1.40
2022-12-19T09:42:41.455Z,1.50
2022-12-19T09:45:58.362Z,1.30
2022-12-19T09:48:26.590Z,1.40
2022-12-19T09:51:11.173Z,1.70
2022-12-19T09:54:01.754Z,1.80
2022-12-19T09:56:45.363Z,1.80
2022-12-19T09:59:39.722Z,1.90
2022-12-19T10:02:37.883Z,1.30
2022-12-19T10:05:27.864Z,1.70
2022-12-19T10:08:08.390Z,1.80
2022-12-19T10:12:38.769Z,2.00
2022-12-19T10:13:45.225Z,1.70
2022-12-19T10:16:36.611Z,1.90
2022-12-19T10:19:15.195Z,1.70
2022-12-19T10:22:18.194Z,1.80
2022-12-19T10:25:21.709Z,1.60
2022-12-19T10:27:59.708Z,2.00
2022-12-19T10:30:32.424Z,2.20
2022-12-19T10:33:28.983Z,2.00
2022-12-19T10:36:01.982Z,2.60
2022-12-19T10:38:51.028Z,3.00
2022-12-19T10:41:29.819Z,3.10
2022-12-19T10:44:09.172Z,3.30
2022-12-19T10:46:47.136Z,3.30
2022-12-19T10:49:17.893Z,3.70
2022-12-19T10:52:07.986Z,3.60
2022-12-19T10:54:36.320Z,3.10
2022-12-19T10:57:22.704Z,2.50
2022-12-19T11:00:19.223Z,2.10
2022-12-19T11:02:50.898Z,1.50
2022-12-19T11:05:31.315Z,1.00
2022-12-19T11:08:11.275Z,0.90
2022-12-19T11:11:34.378Z,1.10
2022-12-19T11:18:23.032Z,1.10
2022-12-19T11:21:41.075Z,1.30
2022-12-19T11:29:24.991Z,1.20
2022-12-19T11:29:38.157Z,1.50
2022-12-19T11:30:47.445Z,1.60
2022-12-19T11:30:47.446Z,1.30
2022-12-19T11:34:25.163Z,1.60
2022-12-19T11:37:18.462Z,2.10
2022-12-19T11:40:15.729Z,1.60
2022-12-19T11:43:41.955Z,1.80
2022-12-19T11:46:24.204Z,1.60
2022-12-19T11:49:02.594Z,1.30
2022-12-19T11:51:48.758Z,1.40
2022-12-19T11:54:35.019Z,1.40
2022-12-19T11:57:03.927Z,1.40
2022-12-19T11:59:37.116Z,1.20
2022-12-19T12:02:30.971Z,1.10
2022-12-19T12:05:09.383Z,1.00
2022-12-19T12:08:40.526Z,0.80
2022-12-19T12:15:11.283Z,1.40
2022-12-19T12:21:50.076Z,1.30
2022-12-19T12:28:41.532Z,1.80
2022-12-19T12:30:11.680Z,1.50
2022-12-19T12:31:05.201Z,1.70
2022-12-19T12:31:38.593Z,1.60
2022-12-19T12:31:49.077Z,2.10
2022-12-19T12:35:38.189Z,1.70
2022-12-19T12:35:48.613Z,1.40
2022-12-19T12:38:25.427Z,1.70
2022-12-19T12:41:16.795Z,1.40
2022-12-19T12:43:47.898Z,1.10
2022-12-19T12:46:23.494Z,1.10
2022-12-19T12:48:58.978Z,1.40
2022-12-19T12:51:28.160Z,1.50
2022-12-19T12:54:06.208Z,1.40
2022-12-19T12:56:36.872Z,1.90
2022-12-19T12:59:20.785Z,1.90
2022-12-19T13:02:17.858Z,1.60
2022-12-19T13:05:00.284Z,1.40
2022-12-19T13:07:51.442Z,1.40
2022-12-19T13:10:29.889Z,1.60
2022-12-19T13:13:15.832Z,1.60
2022-12-19T13:15:46.535Z,1.60
2022-12-19T13:18:35.287Z,2.90
2022-12-19T13:21:05.824Z,2.00
2022-12-19T13:23:36.876Z,1.60
2022-12-19T13:26:19.956Z,1.40
2022-12-19T13:28:48.731Z,1.40
2022-12-19T13:31:22.398Z,1.80
2022-12-19T13:33:57.132Z,1.50
2022-12-19T13:39:54.403Z,2.00
2022-12-19T13:40:14.159Z,1.80
2022-12-19T13:43:10.599Z,1.60
2022-12-19T13:45:48.179Z,2.00
2022-12-19T13:48:26.661Z,1.70
2022-12-19T13:50:57.008Z,2.10
2022-12-19T13:53:30.336Z,1.80
2022-12-19T13:56:06.255Z,2.10
2022-12-19T13:58:45.245Z,2.00
2022-12-19T14:01:30.873Z,1.70
2022-12-19T14:04:08.730Z,2.10
2022-12-19T14:06:46.980Z,2.50
2022-12-19T14:11:29.368Z,2.10
2022-12-19T14:13:53.335Z,2.20
2022-12-19T14:15:35.204Z,2.00
2022-12-19T14:18:42.713Z,2.00
2022-12-19T14:22:07.036Z,2.00
2022-12-19T14:24:20.067Z,2.20
2022-12-19T14:28:24.083Z,1.90
2022-12-19T14:30:27.745Z,1.50
2022-12-19T14:33:46.308Z,1.80
2022-12-19T14:36:11.293Z,1.30
2022-12-19T14:39:27.112Z,1.40
2022-12-19T14:41:27.665Z,1.90
2022-12-19T14:52:35.337Z,1.40
2022-12-19T14:54:05.506Z,1.30
2022-12-19T14:54:55.200Z,1.20
2022-12-19T14:56:11.484Z,1.20
2022-12-19T14:58:53.010Z,1.50
2022-12-19T15:01:24.978Z,1.30
2022-12-19T15:04:51.894Z,1.30
2022-12-19T15:07:07.984Z,2.30
2022-12-19T15:11:08.247Z,2.20
2022-12-19T15:14:47.322Z,1.90
2022-12-19T15:15:40.385Z,1.70
2022-12-19T15:18:33.167Z,2.60
2022-12-19T15:21:09.225Z,2.40
2022-12-19T15:23:37.221Z,1.90
2022-12-19T15:26:11.376Z,3.90
2022-12-19T15:28:43.748Z,2.50
2022-12-19T15:31:18.237Z,2.20
2022-12-19T15:34:14.899Z,1.90
2022-12-19T15:36:35.579Z,1.80
2022-12-19T15:39:04.600Z,2.00
2022-12-19T15:41:32.669Z,2.00
2022-12-19T15:44:07.559Z,1.90
2022-12-19T15:46:35.840Z,2.00
2022-12-19T15:49:04.066Z,2.80
2022-12-19T15:51:32.277Z,2.10
2022-12-19T15:54:30.180Z,1.90
2022-12-19T15:59:37.862Z,2.00
2022-12-19T16:02:18.514Z,2.10
2022-12-19T16:04:50.178Z,2.40
2022-12-19T16:07:21.755Z,3.00
2022-12-19T16:09:50.611Z,2.70
2022-12-19T16:12:25.109Z,2.30
2022-12-19T16:14:59.926Z,3.00
2022-12-19T16:17:32.116Z,3.30
2022-12-19T16:20:00.322Z,2.60
2022-12-19T16:22:29.795Z,2.70
2022-12-19T16:24:58.113Z,2.50
2022-12-19T16:27:31.644Z,2.40
2022-12-19T16:30:18.557Z,2.90
2022-12-19T16:32:50.809Z,2.00
2022-12-19T16:35:40.164Z,2.30
2022-12-19T16:38:09.743Z,2.40
2022-12-19T16:40:38.430Z,2.40
2022-12-19T16:43:19.438Z,2.90
2022-12-19T16:45:48.039Z,3.20
2022-12-19T16:48:26.766Z,2.90
2022-12-19T16:50:57.856Z,2.80
2022-12-19T16:53:26.256Z,3.30
2022-12-19T16:55:56.787Z,2.70
2022-12-19T16:58:27.503Z,3.00
2022-12-19T17:00:56.428Z,2.60
2022-12-19T17:03:30.713Z,3.30
2022-12-19T17:05:59.272Z,2.90
2022-12-19T17:08:27.672Z,3.50
2022-12-19T17:10:56.417Z,3.70
2022-12-19T17:13:25.442Z,4.80
2022-12-19T17:15:57.092Z,4.30
2022-12-19T17:18:30.944Z,4.80
2022-12-19T17:20:59.561Z,4.70
2022-12-19T17:23:30.113Z,4.10
2022-12-19T17:25:59.260Z,3.90
2022-12-19T17:28:29.210Z,3.30
2022-12-19T17:31:02.618Z,5.90
2022-12-19T17:33:36.129Z,4.90
2022-12-19T17:36:06.438Z,4.50
2022-12-19T17:38:35.110Z,4.80
2022-12-19T17:41:04.225Z,4.40
2022-12-19T17:43:32.789Z,5.00
2022-12-19T17:46:01.333Z,5.00
2022-12-19T17:48:32.350Z,4.50
2022-12-19T17:51:01.432Z,4.20
2022-12-19T17:53:29.726Z,4.40
2022-12-19T17:55:57.957Z,4.60
2022-12-19T17:58:26.274Z,4.70
2022-12-19T18:00:54.574Z,5.90
2022-12-19T18:03:26.919Z,5.10
2022-12-19T18:05:56.303Z,5.50
2022-12-19T18:08:28.652Z,5.80
2022-12-19T18:11:01.470Z,6.30
2022-12-19T18:13:31.580Z,6.20
2022-12-19T18:16:02.454Z,6.70
2022-12-19T18:18:34.949Z,7.60
2022-12-19T18:21:04.389Z,8.20
2022-12-19T18:23:33.466Z,9.30
2022-12-19T18:26:02.812Z,9.40
2022-12-19T18:28:31.414Z,9.50
2022-12-19T18:31:03.285Z,11.10
2022-12-19T18:33:42.089Z,10.60
2022-12-19T18:36:19.692Z,10.60
2022-12-19T18:38:50.106Z,11.40
2022-12-19T18:41:19.398Z,11.00
2022-12-19T18:43:48.523Z,11.20
2022-12-19T18:46:22.747Z,12.60
2022-12-19T18:48:51.248Z,12.50
2022-12-19T18:51:22.285Z,12.00
2022-12-19T18:53:52.237Z,13.10
2022-12-19T18:56:20.623Z,12.80
2022-12-19T18:58:48.768Z,12.60
2022-12-19T19:01:19.580Z,13.40
2022-12-19T19:03:56.957Z,14.70
2022-12-19T19:06:32.952Z,13.70
2022-12-19T19:09:04.198Z,12.70
2022-12-19T19:11:32.381Z,13.90
2022-12-19T19:14:00.508Z,13.30
2022-12-19T19:16:28.892Z,12.80
2022-12-19T19:18:58.935Z,11.90
2022-12-19T19:21:32.263Z,12.70
2022-12-19T19:24:06.157Z,12.10
2022-12-19T19:26:34.362Z,12.60
2022-12-19T19:29:02.570Z,12.20
2022-12-19T19:31:33.779Z,13.50
2022-12-19T19:34:12.741Z,12.70
2022-12-19T19:36:45.851Z,12.60
2022-12-19T19:39:14.156Z,10.80
2022-12-19T19:41:42.261Z,11.70
2022-12-19T19:44:10.513Z,10.60
2022-12-19T19:46:38.789Z,10.00
2022-12-19T19:49:07.801Z,9.40
2022-12-19T19:51:36.854Z,9.80
2022-12-19T19:54:05.242Z,9.60
2022-12-19T19:56:33.637Z,8.90
2022-12-19T19:59:02.090Z,8.30
2022-12-19T20:01:30.418Z,8.10
2022-12-19T20:03:58.818Z,8.40
2022-12-19T20:06:27.405Z,8.00
2022-12-19T20:08:55.761Z,7.70
2022-12-19T20:11:24.846Z,6.20
2022-12-19T20:16:20.973Z,6.30
2022-12-19T20:18:51.728Z,6.70
2022-12-19T20:21:21.088Z,6.70
2022-12-19T20:23:49.210Z,5.80
2022-12-19T20:26:17.853Z,6.30
2022-12-19T20:28:49.560Z,6.70
2022-12-19T20:31:20.827Z,6.40
2022-12-19T20:33:49.410Z,7.00
2022-12-19T20:36:17.944Z,6.50
2022-12-19T20:38:46.567Z,6.60
2022-12-19T20:41:16.442Z,7.20
2022-12-19T20:43:45.146Z,7.40
2022-12-19T20:46:16.406Z,8.50
2022-12-19T20:48:45.366Z,7.10
2022-12-19T20:51:15.968Z,5.90
2022-12-19T20:53:45.549Z,7.40
2022-12-19T20:56:16.961Z,7.50
2022-12-19T20:58:46.290Z,7.90
2022-12-19T21:01:21.085Z,8.00
2022-12-19T21:03:50.440Z,8.10
2022-12-19T21:06:21.118Z,7.80
2022-12-19T21:08:53.535Z,7.80
2022-12-19T21:11:22.619Z,7.10
2022-12-19T21:13:50.911Z,8.00
2022-12-19T21:16:21.176Z,7.80
2022-12-19T21:18:51.034Z,7.80
2022-12-19T21:21:23.649Z,7.60
2022-12-19T21:23:52.743Z,8.20
2022-12-19T21:26:23.113Z,8.10
2022-12-19T21:28:51.347Z,7.50
2022-12-19T21:31:26.709Z,7.00
2022-12-19T21:33:56.928Z,7.40
2022-12-19T21:36:26.640Z,7.60
2022-12-19T21:38:58.126Z,7.00
2022-12-19T21:41:27.174Z,7.40
2022-12-19T21:43:56.284Z,9.50
2022-12-19T21:46:27.984Z,8.70
2022-12-19T21:48:58.934Z,8.60
2022-12-19T21:51:29.943Z,8.00
2022-12-19T21:54:02.280Z,8.60
2022-12-19T21:56:35.799Z,8.10
2022-12-19T21:59:06.376Z,7.70
2022-12-19T22:01:34.679Z,8.40
2022-12-19T22:04:10.703Z,7.70
2022-12-19T22:06:39.935Z,8.20
2022-12-19T22:09:12.192Z,7.80
2022-12-19T22:11:40.391Z,8.20
2022-12-19T22:14:08.805Z,8.30
2022-12-19T22:16:37.381Z,8.80
2022-12-19T22:19:06.769Z,7.60
2022-12-19T22:21:35.246Z,9.10
2022-12-19T22:24:04.137Z,9.20
2022-12-19T22:26:32.957Z,8.60
2022-12-19T22:29:01.463Z,9.00
2022-12-19T22:31:32.563Z,9.40
2022-12-19T22:34:03.681Z,9.80
2022-12-19T22:36:36.385Z,9.20
2022-12-19T22:39:06.615Z,9.10
2022-12-19T22:41:36.214Z,8.90
2022-12-19T22:44:06.405Z,8.70
2022-12-19T22:46:38.037Z,8.70
2022-12-19T22:49:08.941Z,7.50
2022-12-19T22:51:37.563Z,9.00
2022-12-19T22:54:07.364Z,8.60
2022-12-19T22:56:36.596Z,8.00
2022-12-19T22:59:07.394Z,7.60
2022-12-19T23:01:42.554Z,8.50
2022-12-19T23:04:15.359Z,8.80
2022-12-19T23:06:44.547Z,8.30
2022-12-19T23:09:16.022Z,8.80
2022-12-19T23:11:47.245Z,9.00
2022-12-19T23:14:18.466Z,9.00
2022-12-19T23:16:48.124Z,8.70
2022-12-19T23:19:18.049Z,8.80
2022-12-19T23:21:46.275Z,9.40
2022-12-19T23:24:14.703Z,8.80
2022-12-19T23:26:42.976Z,9.50
2022-12-19T23:29:14.014Z,8.60
2022-12-19T23:31:44.926Z,9.50
2022-12-19T23:34:14.239Z,9.40
2022-12-19T23:39:30.414Z,9.00
2022-12-19T23:41:58.534Z,10.30
2022-12-19T23:44:27.025Z,9.10
2022-12-19T23:47:02.385Z,8.40
2022-12-19T23:49:32.955Z,9.20
2022-12-19T23:52:01.504Z,8.90
2022-12-19T23:54:29.739Z,8.50
2022-12-19T23:56:57.831Z,7.90
2022-12-19T23:59:26.039Z,7.20
